Etusivu
METAR-TAF:

METAR-TAF

Lentoasemat :

Néa Anchíaloksen lentoasema

Volos, Kreikka

Leveyspiiri: 39-13N, Pituuspiiri: 022-48E, korkeus merenpinnasta: 25 m

Tämänhetkinen sää

Tämä raportti tehtiin 25 minuuttia sitten, kello 17.50 UTC
tyyntä
Lämpötila 19°C
Kosteus 60%
Ilmanpaine 1015 hPa
Näkyvyys 10 km tai enemmän
Muutamia pilviä 3000 ft:n korkeudessa

METAR: LGBL 261750Z 00000KT 9999 FEW030 19/11 Q1015

Aika: 21:15 (18:15 UTC)

Sääennuste

Tämä raportti tehtiin 1 tunti ja 15 minuuttia sitten, kello 17.00 UTC
Ennuste voimassa 26. päivästä klo 18 UTC - 27. päivään klo 03 UTC
Tuuli 12 kn idästä/kaakosta
Näkyvyys 10 km tai enemmän
Muutamia pilviä 2500 ft:n korkeudessa
Tulossa
27. päivästä klo 01 UTC - 27. päivään klo 03 UTC
Tuuli 10 kn lännestä

TAF: LGBL 261700Z 2618/2703 11012KT 9999 FEW025 BECMG 2701/2703 27010KT

Säähavainnot ja -ennusteet yli 4000 lentoasemalta (METAR- ja TAF-raportit).

Käytössä olevat sääasemat on merkitty karttaan keltaisilla ja punaisilla pisteillä.

Aseta hiiri pisteen päälle nähdäksesi sääaseman nimen.

Klikkaa sitten nähdäksesi säähavainnot ja -ennusteet.

Kartan vaihtaminen: klikkaa mustalla rastilla varustettuja vihreitä pisteitä, niin voit zoomata sisään; viivalla varustettua vihreää pistettä, niin voit zoomata ulos tai vihreitä nuolia, niin pääset viereisille kartoille.


METAR-TAF: